sensor_id;sensor_type;location;lat;lon;timestamp;P1;durP1;ratioP1;P2;durP2;ratioP2
44048;SDS011;29717;47.028;15.470;2023-04-01T00:01:42;5.07;;;3.13;;
44048;SDS011;29717;47.028;15.470;2023-04-01T00:04:11;3.43;;;3.13;;
44048;SDS011;29717;47.028;15.470;2023-04-01T00:06:37;4.97;;;3.57;;
44048;SDS011;29717;47.028;15.470;2023-04-01T00:09:04;4.60;;;3.80;;
44048;SDS011;29717;47.028;15.470;2023-04-01T00:11:32;3.87;;;3.50;;
44048;SDS011;29717;47.028;15.470;2023-04-01T00:13:59;4.13;;;3.53;;
44048;SDS011;29717;47.028;15.470;2023-04-01T00:16:26;6.60;;;3.73;;
44048;SDS011;29717;47.028;15.470;2023-04-01T00:18:53;3.53;;;3.23;;
44048;SDS011;29717;47.028;15.470;2023-04-01T00:21:21;4.00;;;3.60;;
44048;SDS011;29717;47.028;15.470;2023-04-01T00:23:48;5.07;;;4.60;;
44048;SDS011;29717;47.028;15.470;2023-04-01T00:26:17;4.13;;;3.70;;
44048;SDS011;29717;47.028;15.470;2023-04-01T00:28:46;6.33;;;3.60;;
44048;SDS011;29717;47.028;15.470;2023-04-01T00:31:14;3.50;;;3.20;;
44048;SDS011;29717;47.028;15.470;2023-04-01T00:33:41;4.50;;;3.13;;
44048;SDS011;29717;47.028;15.470;2023-04-01T00:36:08;3.47;;;3.17;;
44048;SDS011;29717;47.028;15.470;2023-04-01T00:38:37;4.23;;;3.33;;
44048;SDS011;29717;47.028;15.470;2023-04-01T00:41:05;5.00;;;2.93;;
44048;SDS011;29717;47.028;15.470;2023-04-01T00:43:33;4.07;;;3.13;;
44048;SDS011;29717;47.028;15.470;2023-04-01T00:46:00;3.40;;;2.90;;
44048;SDS011;29717;47.028;15.470;2023-04-01T00:48:28;3.87;;;3.20;;
44048;SDS011;29717;47.028;15.470;2023-04-01T00:50:57;4.30;;;3.37;;
44048;SDS011;29717;47.028;15.470;2023-04-01T00:53:25;4.13;;;2.90;;
44048;SDS011;29717;47.028;15.470;2023-04-01T00:55:55;3.30;;;3.00;;
44048;SDS011;29717;47.028;15.470;2023-04-01T00:58:23;3.08;;;2.78;;
44048;SDS011;29717;47.028;15.470;2023-04-01T01:00:50;3.05;;;2.85;;
44048;SDS011;29717;47.028;15.470;2023-04-01T01:03:18;3.77;;;3.17;;
44048;SDS011;29717;47.028;15.470;2023-04-01T01:08:35;3.40;;;3.10;;
44048;SDS011;29717;47.028;15.470;2023-04-01T01:11:10;3.27;;;3.07;;
44048;SDS011;29717;47.028;15.470;2023-04-01T01:13:41;5.00;;;3.00;;
44048;SDS011;29717;47.028;15.470;2023-04-01T01:16:10;3.17;;;2.97;;
44048;SDS011;29717;47.028;15.470;2023-04-01T01:18:42;3.00;;;2.70;;
44048;SDS011;29717;47.028;15.470;2023-04-01T01:24:13;4.37;;;3.00;;
44048;SDS011;29717;47.028;15.470;2023-04-01T01:26:54;3.30;;;3.00;;
44048;SDS011;29717;47.028;15.470;2023-04-01T01:29:31;3.57;;;3.00;;
44048;SDS011;29717;47.028;15.470;2023-04-01T01:32:01;3.50;;;2.70;;
44048;SDS011;29717;47.028;15.470;2023-04-01T01:34:31;2.90;;;2.70;;
44048;SDS011;29717;47.028;15.470;2023-04-01T01:37:05;4.90;;;3.43;;
44048;SDS011;29717;47.028;15.470;2023-04-01T01:39:35;5.00;;;3.57;;
44048;SDS011;29717;47.028;15.470;2023-04-01T01:42:04;5.00;;;3.40;;
44048;SDS011;29717;47.028;15.470;2023-04-01T01:44:32;4.00;;;3.23;;
44048;SDS011;29717;47.028;15.470;2023-04-01T01:47:00;4.20;;;3.27;;
44048;SDS011;29717;47.028;15.470;2023-04-01T01:49:27;5.20;;;3.80;;
44048;SDS011;29717;47.028;15.470;2023-04-01T01:51:55;7.33;;;5.27;;
44048;SDS011;29717;47.028;15.470;2023-04-01T01:54:24;6.13;;;4.23;;
44048;SDS011;29717;47.028;15.470;2023-04-01T01:56:52;5.10;;;4.50;;
44048;SDS011;29717;47.028;15.470;2023-04-01T01:59:22;3.37;;;3.07;;
44048;SDS011;29717;47.028;15.470;2023-04-01T02:01:54;3.97;;;3.60;;
44048;SDS011;29717;47.028;15.470;2023-04-01T02:04:22;4.17;;;3.40;;
44048;SDS011;29717;47.028;15.470;2023-04-01T02:06:51;5.30;;;3.53;;
44048;SDS011;29717;47.028;15.470;2023-04-01T02:09:19;5.00;;;3.50;;
44048;SDS011;29717;47.028;15.470;2023-04-01T02:11:49;4.13;;;3.57;;
44048;SDS011;29717;47.028;15.470;2023-04-01T02:14:22;4.40;;;4.00;;
44048;SDS011;29717;47.028;15.470;2023-04-01T02:16:53;5.20;;;3.80;;
44048;SDS011;29717;47.028;15.470;2023-04-01T02:19:30;3.73;;;3.43;;
44048;SDS011;29717;47.028;15.470;2023-04-01T02:21:59;4.60;;;3.60;;
44048;SDS011;29717;47.028;15.470;2023-04-01T02:24:27;4.13;;;3.73;;
44048;SDS011;29717;47.028;15.470;2023-04-01T02:26:56;5.47;;;4.10;;
44048;SDS011;29717;47.028;15.470;2023-04-01T02:29:29;4.03;;;3.70;;
44048;SDS011;29717;47.028;15.470;2023-04-01T02:31:59;5.67;;;5.07;;
44048;SDS011;29717;47.028;15.470;2023-04-01T02:34:28;7.27;;;5.90;;
44048;SDS011;29717;47.028;15.470;2023-04-01T02:36:55;5.90;;;5.30;;
44048;SDS011;29717;47.028;15.470;2023-04-01T02:39:23;7.10;;;5.67;;
44048;SDS011;29717;47.028;15.470;2023-04-01T02:41:51;6.20;;;5.50;;
44048;SDS011;29717;47.028;15.470;2023-04-01T02:44:20;6.07;;;5.47;;
44048;SDS011;29717;47.028;15.470;2023-04-01T02:46:50;6.70;;;5.00;;
44048;SDS011;29717;47.028;15.470;2023-04-01T02:49:18;5.60;;;4.93;;
44048;SDS011;29717;47.028;15.470;2023-04-01T02:51:47;6.00;;;5.50;;
44048;SDS011;29717;47.028;15.470;2023-04-01T02:54:14;8.00;;;5.33;;
44048;SDS011;29717;47.028;15.470;2023-04-01T02:56:41;5.87;;;5.23;;
44048;SDS011;29717;47.028;15.470;2023-04-01T02:59:08;8.67;;;5.00;;
44048;SDS011;29717;47.028;15.470;2023-04-01T03:01:42;5.53;;;4.93;;
44048;SDS011;29717;47.028;15.470;2023-04-01T03:04:09;6.20;;;4.93;;
44048;SDS011;29717;47.028;15.470;2023-04-01T03:06:36;5.33;;;4.83;;
44048;SDS011;29717;47.028;15.470;2023-04-01T03:09:03;6.20;;;4.93;;
44048;SDS011;29717;47.028;15.470;2023-04-01T03:11:30;5.37;;;4.87;;
44048;SDS011;29717;47.028;15.470;2023-04-01T03:13:57;5.40;;;4.83;;
44048;SDS011;29717;47.028;15.470;2023-04-01T03:16:24;5.37;;;4.87;;
44048;SDS011;29717;47.028;15.470;2023-04-01T03:18:53;7.03;;;5.27;;
44048;SDS011;29717;47.028;15.470;2023-04-01T03:21:22;5.13;;;4.63;;
44048;SDS011;29717;47.028;15.470;2023-04-01T03:23:50;5.07;;;4.57;;
44048;SDS011;29717;47.028;15.470;2023-04-01T03:26:22;5.00;;;4.43;;
44048;SDS011;29717;47.028;15.470;2023-04-01T03:28:52;5.10;;;3.87;;
44048;SDS011;29717;47.028;15.470;2023-04-01T03:31:19;6.60;;;4.50;;
44048;SDS011;29717;47.028;15.470;2023-04-01T03:33:46;6.43;;;4.97;;
44048;SDS011;29717;47.028;15.470;2023-04-01T03:36:17;6.90;;;6.17;;
44048;SDS011;29717;47.028;15.470;2023-04-01T03:38:45;8.37;;;6.13;;
44048;SDS011;29717;47.028;15.470;2023-04-01T03:41:12;8.03;;;7.23;;
44048;SDS011;29717;47.028;15.470;2023-04-01T03:43:48;9.60;;;8.13;;
44048;SDS011;29717;47.028;15.470;2023-04-01T03:46:21;8.50;;;7.63;;
44048;SDS011;29717;47.028;15.470;2023-04-01T03:48:48;9.47;;;8.03;;
44048;SDS011;29717;47.028;15.470;2023-04-01T03:51:20;10.67;;;8.27;;
44048;SDS011;29717;47.028;15.470;2023-04-01T03:53:47;9.80;;;8.40;;
44048;SDS011;29717;47.028;15.470;2023-04-01T03:56:14;8.87;;;8.00;;
44048;SDS011;29717;47.028;15.470;2023-04-01T03:58:41;9.40;;;7.63;;
44048;SDS011;29717;47.028;15.470;2023-04-01T04:01:18;10.87;;;9.77;;
44048;SDS011;29717;47.028;15.470;2023-04-01T04:03:46;10.17;;;7.93;;
44048;SDS011;29717;47.028;15.470;2023-04-01T04:06:14;12.00;;;10.80;;
44048;SDS011;29717;47.028;15.470;2023-04-01T04:08:42;9.57;;;7.90;;
44048;SDS011;29717;47.028;15.470;2023-04-01T04:11:09;9.40;;;7.30;;
44048;SDS011;29717;47.028;15.470;2023-04-01T04:13:36;7.50;;;6.80;;
44048;SDS011;29717;47.028;15.470;2023-04-01T04:16:03;7.53;;;6.63;;
44048;SDS011;29717;47.028;15.470;2023-04-01T04:18:30;7.40;;;6.60;;
44048;SDS011;29717;47.028;15.470;2023-04-01T04:20:57;7.00;;;6.30;;
44048;SDS011;29717;47.028;15.470;2023-04-01T04:23:23;7.27;;;6.50;;
44048;SDS011;29717;47.028;15.470;2023-04-01T04:25:58;6.93;;;6.30;;
44048;SDS011;29717;47.028;15.470;2023-04-01T04:28:25;68.70;;;53.43;;
44048;SDS011;29717;47.028;15.470;2023-04-01T04:30:53;38.40;;;30.40;;
44048;SDS011;29717;47.028;15.470;2023-04-01T04:33:20;18.07;;;14.17;;
44048;SDS011;29717;47.028;15.470;2023-04-01T04:35:47;17.50;;;13.57;;
44048;SDS011;29717;47.028;15.470;2023-04-01T04:38:14;12.77;;;10.57;;
44048;SDS011;29717;47.028;15.470;2023-04-01T04:40:41;11.07;;;8.63;;
44048;SDS011;29717;47.028;15.470;2023-04-01T04:43:12;10.30;;;9.30;;
44048;SDS011;29717;47.028;15.470;2023-04-01T04:45:39;9.43;;;8.50;;
44048;SDS011;29717;47.028;15.470;2023-04-01T04:48:07;8.57;;;7.77;;
44048;SDS011;29717;47.028;15.470;2023-04-01T04:50:33;8.50;;;7.57;;
44048;SDS011;29717;47.028;15.470;2023-04-01T04:53:00;8.87;;;7.23;;
44048;SDS011;29717;47.028;15.470;2023-04-01T04:55:28;9.43;;;5.67;;
44048;SDS011;29717;47.028;15.470;2023-04-01T04:57:58;7.27;;;6.57;;
44048;SDS011;29717;47.028;15.470;2023-04-01T05:00:26;7.03;;;6.00;;
44048;SDS011;29717;47.028;15.470;2023-04-01T05:02:53;7.67;;;6.47;;
44048;SDS011;29717;47.028;15.470;2023-04-01T05:05:20;8.60;;;6.63;;
44048;SDS011;29717;47.028;15.470;2023-04-01T05:07:46;7.40;;;6.40;;
44048;SDS011;29717;47.028;15.470;2023-04-01T05:10:13;7.20;;;6.53;;
44048;SDS011;29717;47.028;15.470;2023-04-01T05:12:40;7.60;;;5.80;;
44048;SDS011;29717;47.028;15.470;2023-04-01T05:15:07;7.27;;;6.53;;
44048;SDS011;29717;47.028;15.470;2023-04-01T05:17:36;6.57;;;5.97;;
44048;SDS011;29717;47.028;15.470;2023-04-01T05:20:03;6.97;;;6.00;;
44048;SDS011;29717;47.028;15.470;2023-04-01T05:22:30;7.70;;;6.63;;
44048;SDS011;29717;47.028;15.470;2023-04-01T05:24:58;8.50;;;7.20;;
44048;SDS011;29717;47.028;15.470;2023-04-01T05:27:25;8.20;;;7.40;;
44048;SDS011;29717;47.028;15.470;2023-04-01T05:29:52;10.17;;;7.83;;
44048;SDS011;29717;47.028;15.470;2023-04-01T05:32:18;9.40;;;8.10;;
44048;SDS011;29717;47.028;15.470;2023-04-01T05:34:47;8.90;;;7.50;;
44048;SDS011;29717;47.028;15.470;2023-04-01T05:37:16;9.43;;;7.50;;
44048;SDS011;29717;47.028;15.470;2023-04-01T05:39:43;8.27;;;7.40;;
44048;SDS011;29717;47.028;15.470;2023-04-01T05:42:10;11.00;;;7.60;;
44048;SDS011;29717;47.028;15.470;2023-04-01T05:44:37;7.80;;;7.00;;
44048;SDS011;29717;47.028;15.470;2023-04-01T05:47:04;8.23;;;7.30;;
44048;SDS011;29717;47.028;15.470;2023-04-01T05:49:32;7.10;;;6.40;;
44048;SDS011;29717;47.028;15.470;2023-04-01T05:52:01;10.13;;;6.70;;
44048;SDS011;29717;47.028;15.470;2023-04-01T05:54:28;11.27;;;6.77;;
44048;SDS011;29717;47.028;15.470;2023-04-01T05:56:54;7.00;;;6.40;;
44048;SDS011;29717;47.028;15.470;2023-04-01T05:59:21;10.27;;;6.50;;
44048;SDS011;29717;47.028;15.470;2023-04-01T06:01:48;8.40;;;6.57;;
44048;SDS011;29717;47.028;15.470;2023-04-01T06:04:16;7.20;;;6.50;;
44048;SDS011;29717;47.028;15.470;2023-04-01T06:06:44;7.50;;;6.63;;
44048;SDS011;29717;47.028;15.470;2023-04-01T06:09:14;9.07;;;6.37;;
44048;SDS011;29717;47.028;15.470;2023-04-01T06:11:45;8.00;;;6.30;;
44048;SDS011;29717;47.028;15.470;2023-04-01T06:14:17;6.30;;;5.70;;
44048;SDS011;29717;47.028;15.470;2023-04-01T06:16:52;7.13;;;5.80;;
44048;SDS011;29717;47.028;15.470;2023-04-01T06:19:28;6.93;;;5.68;;
44048;SDS011;29717;47.028;15.470;2023-04-01T06:22:10;7.60;;;5.10;;
44048;SDS011;29717;47.028;15.470;2023-04-01T06:24:45;7.30;;;5.65;;
44048;SDS011;29717;47.028;15.470;2023-04-01T06:27:16;6.32;;;5.00;;
44048;SDS011;29717;47.028;15.470;2023-04-01T06:30:01;7.60;;;5.28;;
44048;SDS011;29717;47.028;15.470;2023-04-01T06:32:51;5.63;;;5.03;;
44048;SDS011;29717;47.028;15.470;2023-04-01T06:35:36;6.32;;;4.47;;
44048;SDS011;29717;47.028;15.470;2023-04-01T06:38:19;5.80;;;4.28;;
44048;SDS011;29717;47.028;15.470;2023-04-01T06:40:55;5.30;;;4.45;;
44048;SDS011;29717;47.028;15.470;2023-04-01T06:43:28;8.27;;;5.03;;
44048;SDS011;29717;47.028;15.470;2023-04-01T06:46:02;6.07;;;4.65;;
44048;SDS011;29717;47.028;15.470;2023-04-01T06:48:42;5.75;;;4.50;;
44048;SDS011;29717;47.028;15.470;2023-04-01T06:51:15;8.05;;;4.47;;
44048;SDS011;29717;47.028;15.470;2023-04-01T06:53:49;5.38;;;4.35;;
44048;SDS011;29717;47.028;15.470;2023-04-01T06:56:20;6.70;;;4.85;;
44048;SDS011;29717;47.028;15.470;2023-04-01T06:58:49;7.97;;;4.05;;
44048;SDS011;29717;47.028;15.470;2023-04-01T07:01:18;7.22;;;3.78;;
44048;SDS011;29717;47.028;15.470;2023-04-01T07:03:47;8.02;;;3.45;;
44048;SDS011;29717;47.028;15.470;2023-04-01T07:06:22;5.15;;;3.40;;
44048;SDS011;29717;47.028;15.470;2023-04-01T07:08:50;7.10;;;3.88;;
44048;SDS011;29717;47.028;15.470;2023-04-01T07:11:22;5.55;;;4.00;;
44048;SDS011;29717;47.028;15.470;2023-04-01T07:13:53;4.78;;;4.30;;
44048;SDS011;29717;47.028;15.470;2023-04-01T07:16:21;5.53;;;4.93;;
44048;SDS011;29717;47.028;15.470;2023-04-01T07:18:52;6.75;;;4.35;;
44048;SDS011;29717;47.028;15.470;2023-04-01T07:21:23;6.85;;;5.05;;
44048;SDS011;29717;47.028;15.470;2023-04-01T07:23:52;8.93;;;4.55;;
44048;SDS011;29717;47.028;15.470;2023-04-01T07:26:23;6.10;;;4.10;;
44048;SDS011;29717;47.028;15.470;2023-04-01T07:28:50;6.00;;;4.13;;
44048;SDS011;29717;47.028;15.470;2023-04-01T07:31:24;4.22;;;3.80;;
44048;SDS011;29717;47.028;15.470;2023-04-01T07:33:58;5.68;;;4.80;;
44048;SDS011;29717;47.028;15.470;2023-04-01T07:36:31;4.43;;;4.03;;
44048;SDS011;29717;47.028;15.470;2023-04-01T07:39:03;7.70;;;4.60;;
44048;SDS011;29717;47.028;15.470;2023-04-01T07:41:36;9.05;;;5.05;;
44048;SDS011;29717;47.028;15.470;2023-04-01T07:44:10;6.50;;;4.60;;
44048;SDS011;29717;47.028;15.470;2023-04-01T07:46:49;5.57;;;4.57;;
44048;SDS011;29717;47.028;15.470;2023-04-01T07:49:18;4.88;;;3.90;;
44048;SDS011;29717;47.028;15.470;2023-04-01T07:51:50;9.48;;;4.40;;
44048;SDS011;29717;47.028;15.470;2023-04-01T07:54:22;5.80;;;4.00;;
44048;SDS011;29717;47.028;15.470;2023-04-01T07:56:55;6.22;;;3.95;;
44048;SDS011;29717;47.028;15.470;2023-04-01T07:59:25;6.60;;;4.75;;
44048;SDS011;29717;47.028;15.470;2023-04-01T08:01:55;6.07;;;4.20;;
44048;SDS011;29717;47.028;15.470;2023-04-01T08:04:26;8.30;;;4.38;;
44048;SDS011;29717;47.028;15.470;2023-04-01T08:06:57;6.68;;;4.47;;
44048;SDS011;29717;47.028;15.470;2023-04-01T08:09:28;6.20;;;4.22;;
44048;SDS011;29717;47.028;15.470;2023-04-01T08:12:04;4.40;;;3.92;;
44048;SDS011;29717;47.028;15.470;2023-04-01T08:14:35;8.25;;;4.53;;
44048;SDS011;29717;47.028;15.470;2023-04-01T08:17:05;3.55;;;3.25;;
44048;SDS011;29717;47.028;15.470;2023-04-01T08:19:37;2.97;;;2.53;;
44048;SDS011;29717;47.028;15.470;2023-04-01T08:22:08;3.72;;;2.88;;
44048;SDS011;29717;47.028;15.470;2023-04-01T08:24:36;3.38;;;2.22;;
44048;SDS011;29717;47.028;15.470;2023-04-01T08:27:16;2.72;;;1.95;;
44048;SDS011;29717;47.028;15.470;2023-04-01T08:29:46;4.20;;;2.42;;
44048;SDS011;29717;47.028;15.470;2023-04-01T08:32:15;2.88;;;1.98;;
44048;SDS011;29717;47.028;15.470;2023-04-01T08:34:44;2.03;;;1.60;;
44048;SDS011;29717;47.028;15.470;2023-04-01T08:37:14;2.72;;;1.58;;
44048;SDS011;29717;47.028;15.470;2023-04-01T08:39:44;2.40;;;1.92;;
44048;SDS011;29717;47.028;15.470;2023-04-01T08:42:18;2.97;;;2.22;;
44048;SDS011;29717;47.028;15.470;2023-04-01T08:45:00;3.10;;;2.00;;
44048;SDS011;29717;47.028;15.470;2023-04-01T08:50:31;3.15;;;2.47;;
44048;SDS011;29717;47.028;15.470;2023-04-01T08:53:04;3.65;;;2.60;;
44048;SDS011;29717;47.028;15.470;2023-04-01T08:55:51;2.58;;;2.38;;
44048;SDS011;29717;47.028;15.470;2023-04-01T08:58:28;3.60;;;2.80;;
44048;SDS011;29717;47.028;15.470;2023-04-01T09:01:02;3.75;;;2.45;;
44048;SDS011;29717;47.028;15.470;2023-04-01T09:03:41;3.55;;;2.88;;
44048;SDS011;29717;47.028;15.470;2023-04-01T09:06:27;3.25;;;2.55;;
44048;SDS011;29717;47.028;15.470;2023-04-01T09:09:02;4.75;;;2.72;;
44048;SDS011;29717;47.028;15.470;2023-04-01T09:11:38;2.53;;;2.33;;
44048;SDS011;29717;47.028;15.470;2023-04-01T09:14:19;5.82;;;3.08;;
44048;SDS011;29717;47.028;15.470;2023-04-01T09:19:36;2.38;;;2.00;;
44048;SDS011;29717;47.028;15.470;2023-04-01T09:22:17;3.25;;;2.00;;
44048;SDS011;29717;47.028;15.470;2023-04-01T09:24:52;4.32;;;2.00;;
44048;SDS011;29717;47.028;15.470;2023-04-01T09:27:26;2.00;;;1.50;;
44048;SDS011;29717;47.028;15.470;2023-04-01T09:30:10;3.08;;;1.95;;
44048;SDS011;29717;47.028;15.470;2023-04-01T09:32:49;2.97;;;1.83;;
44048;SDS011;29717;47.028;15.470;2023-04-01T09:35:22;2.38;;;1.98;;
44048;SDS011;29717;47.028;15.470;2023-04-01T09:37:53;2.05;;;1.73;;
44048;SDS011;29717;47.028;15.470;2023-04-01T09:40:23;3.78;;;1.50;;
44048;SDS011;29717;47.028;15.470;2023-04-01T09:45:42;2.55;;;1.35;;
44048;SDS011;29717;47.028;15.470;2023-04-01T09:51:00;1.77;;;0.90;;
44048;SDS011;29717;47.028;15.470;2023-04-01T09:53:32;1.30;;;1.10;;
44048;SDS011;29717;47.028;15.470;2023-04-01T09:56:26;1.70;;;1.27;;
44048;SDS011;29717;47.028;15.470;2023-04-01T10:02:17;1.65;;;1.20;;
44048;SDS011;29717;47.028;15.470;2023-04-01T10:08:06;1.15;;;0.90;;
44048;SDS011;29717;47.028;15.470;2023-04-01T10:11:02;2.13;;;1.00;;
44048;SDS011;29717;47.028;15.470;2023-04-01T10:16:26;3.08;;;1.10;;
44048;SDS011;29717;47.028;15.470;2023-04-01T10:19:07;2.33;;;1.00;;
44048;SDS011;29717;47.028;15.470;2023-04-01T10:21:53;0.90;;;0.90;;
44048;SDS011;29717;47.028;15.470;2023-04-01T10:27:16;2.53;;;1.08;;
44048;SDS011;29717;47.028;15.470;2023-04-01T10:32:46;3.25;;;0.90;;
44048;SDS011;29717;47.028;15.470;2023-04-01T10:40:59;0.43;;;0.43;;
44048;SDS011;29717;47.028;15.470;2023-04-01T10:43:39;0.40;;;0.40;;
44048;SDS011;29717;47.028;15.470;2023-04-01T10:49:18;0.10;;;0.10;;
44048;SDS011;29717;47.028;15.470;2023-04-01T10:51:58;0.10;;;0.10;;
44048;SDS011;29717;47.028;15.470;2023-04-01T10:54:43;3.83;;;0.60;;
44048;SDS011;29717;47.028;15.470;2023-04-01T10:57:19;0.65;;;0.28;;
44048;SDS011;29717;47.028;15.470;2023-04-01T11:00:02;0.20;;;0.20;;
44048;SDS011;29717;47.028;15.470;2023-04-01T11:16:34;0.17;;;0.17;;
44048;SDS011;29717;47.028;15.470;2023-04-01T11:19:35;0.70;;;0.40;;
44048;SDS011;29717;47.028;15.470;2023-04-01T11:22:23;0.20;;;0.20;;
44048;SDS011;29717;47.028;15.470;2023-04-01T11:24:57;0.20;;;0.20;;
44048;SDS011;29717;47.028;15.470;2023-04-01T11:27:44;0.17;;;0.17;;
44048;SDS011;29717;47.028;15.470;2023-04-01T11:30:19;0.95;;;0.20;;
44048;SDS011;29717;47.028;15.470;2023-04-01T11:32:52;0.57;;;0.30;;
44048;SDS011;29717;47.028;15.470;2023-04-01T11:38:03;0.38;;;0.38;;
44048;SDS011;29717;47.028;15.470;2023-04-01T11:40:35;4.35;;;0.47;;
44048;SDS011;29717;47.028;15.470;2023-04-01T11:43:06;0.40;;;0.40;;
44048;SDS011;29717;47.028;15.470;2023-04-01T11:45:35;0.60;;;0.30;;
44048;SDS011;29717;47.028;15.470;2023-04-01T11:51:01;0.13;;;0.13;;
44048;SDS011;29717;47.028;15.470;2023-04-01T11:53:34;0.57;;;0.30;;
44048;SDS011;29717;47.028;15.470;2023-04-01T11:56:13;0.22;;;0.22;;
44048;SDS011;29717;47.028;15.470;2023-04-01T11:58:46;0.40;;;0.20;;
44048;SDS011;29717;47.028;15.470;2023-04-01T12:01:20;0.32;;;0.20;;
44048;SDS011;29717;47.028;15.470;2023-04-01T12:04:09;0.40;;;0.20;;
44048;SDS011;29717;47.028;15.470;2023-04-01T12:06:48;0.20;;;0.20;;
44048;SDS011;29717;47.028;15.470;2023-04-01T12:09:18;1.15;;;0.32;;
44048;SDS011;29717;47.028;15.470;2023-04-01T12:11:48;0.30;;;0.30;;
44048;SDS011;29717;47.028;15.470;2023-04-01T12:14:18;0.20;;;0.20;;
44048;SDS011;29717;47.028;15.470;2023-04-01T12:16:49;1.45;;;0.32;;
44048;SDS011;29717;47.028;15.470;2023-04-01T12:19:19;0.32;;;0.10;;
44048;SDS011;29717;47.028;15.470;2023-04-01T12:21:55;0.30;;;0.30;;
44048;SDS011;29717;47.028;15.470;2023-04-01T12:24:29;0.20;;;0.20;;
44048;SDS011;29717;47.028;15.470;2023-04-01T12:27:04;0.38;;;0.38;;
44048;SDS011;29717;47.028;15.470;2023-04-01T12:32:20;0.10;;;0.10;;
44048;SDS011;29717;47.028;15.470;2023-04-01T12:34:55;0.35;;;0.30;;
44048;SDS011;29717;47.028;15.470;2023-04-01T12:37:29;0.35;;;0.30;;
44048;SDS011;29717;47.028;15.470;2023-04-01T12:43:05;0.32;;;0.32;;
44048;SDS011;29717;47.028;15.470;2023-04-01T12:45:38;0.20;;;0.20;;
44048;SDS011;29717;47.028;15.470;2023-04-01T12:54:07;0.30;;;0.17;;
44048;SDS011;29717;47.028;15.470;2023-04-01T12:56:39;0.20;;;0.20;;
44048;SDS011;29717;47.028;15.470;2023-04-01T12:59:20;0.35;;;0.30;;
44048;SDS011;29717;47.028;15.470;2023-04-01T13:02:00;0.93;;;0.90;;
44048;SDS011;29717;47.028;15.470;2023-04-01T13:07:22;0.20;;;0.20;;
44048;SDS011;29717;47.028;15.470;2023-04-01T13:09:55;0.75;;;0.30;;
44048;SDS011;29717;47.028;15.470;2023-04-01T13:12:29;0.20;;;0.20;;
44048;SDS011;29717;47.028;15.470;2023-04-01T13:15:07;4.70;;;3.67;;
44048;SDS011;29717;47.028;15.470;2023-04-01T13:17:36;3.78;;;0.52;;
44048;SDS011;29717;47.028;15.470;2023-04-01T13:20:11;0.85;;;0.38;;
44048;SDS011;29717;47.028;15.470;2023-04-01T13:22:45;0.20;;;0.20;;
44048;SDS011;29717;47.028;15.470;2023-04-01T13:25:19;0.13;;;0.13;;
44048;SDS011;29717;47.028;15.470;2023-04-01T13:27:49;0.10;;;0.10;;
44048;SDS011;29717;47.028;15.470;2023-04-01T13:30:21;0.68;;;0.30;;
44048;SDS011;29717;47.028;15.470;2023-04-01T13:32:50;0.20;;;0.20;;
44048;SDS011;29717;47.028;15.470;2023-04-01T13:35:23;0.30;;;0.30;;
44048;SDS011;29717;47.028;15.470;2023-04-01T13:40:45;0.22;;;0.20;;
44048;SDS011;29717;47.028;15.470;2023-04-01T13:43:14;0.22;;;0.22;;
44048;SDS011;29717;47.028;15.470;2023-04-01T13:45:48;3.63;;;0.40;;
44048;SDS011;29717;47.028;15.470;2023-04-01T13:48:38;0.98;;;0.22;;
44048;SDS011;29717;47.028;15.470;2023-04-01T13:51:22;1.60;;;0.20;;
44048;SDS011;29717;47.028;15.470;2023-04-01T13:56:42;0.63;;;0.30;;
44048;SDS011;29717;47.028;15.470;2023-04-01T13:59:25;0.35;;;0.20;;
44048;SDS011;29717;47.028;15.470;2023-04-01T14:01:58;0.15;;;0.15;;
44048;SDS011;29717;47.028;15.470;2023-04-01T14:04:31;1.08;;;0.38;;
44048;SDS011;29717;47.028;15.470;2023-04-01T14:07:08;1.38;;;0.32;;
44048;SDS011;29717;47.028;15.470;2023-04-01T14:09:45;0.30;;;0.30;;
44048;SDS011;29717;47.028;15.470;2023-04-01T14:12:21;0.30;;;0.30;;
44048;SDS011;29717;47.028;15.470;2023-04-01T14:14:54;0.32;;;0.30;;
44048;SDS011;29717;47.028;15.470;2023-04-01T14:17:31;0.28;;;0.25;;
44048;SDS011;29717;47.028;15.470;2023-04-01T14:20:19;0.20;;;0.20;;
44048;SDS011;29717;47.028;15.470;2023-04-01T14:22:52;0.30;;;0.30;;
44048;SDS011;29717;47.028;15.470;2023-04-01T14:25:28;1.05;;;0.30;;
44048;SDS011;29717;47.028;15.470;2023-04-01T14:28:01;2.00;;;0.57;;
44048;SDS011;29717;47.028;15.470;2023-04-01T14:30:35;0.30;;;0.30;;
44048;SDS011;29717;47.028;15.470;2023-04-01T14:33:10;0.40;;;0.30;;
44048;SDS011;29717;47.028;15.470;2023-04-01T14:35:44;0.40;;;0.40;;
44048;SDS011;29717;47.028;15.470;2023-04-01T14:38:24;0.52;;;0.30;;
44048;SDS011;29717;47.028;15.470;2023-04-01T14:40:54;0.63;;;0.30;;
44048;SDS011;29717;47.028;15.470;2023-04-01T14:43:28;0.30;;;0.30;;
44048;SDS011;29717;47.028;15.470;2023-04-01T14:46:06;1.33;;;0.45;;
44048;SDS011;29717;47.028;15.470;2023-04-01T14:48:37;0.40;;;0.28;;
44048;SDS011;29717;47.028;15.470;2023-04-01T14:51:08;0.20;;;0.20;;
44048;SDS011;29717;47.028;15.470;2023-04-01T14:53:36;0.20;;;0.20;;
44048;SDS011;29717;47.028;15.470;2023-04-01T14:56:07;0.25;;;0.25;;
44048;SDS011;29717;47.028;15.470;2023-04-01T14:58:42;0.20;;;0.20;;
44048;SDS011;29717;47.028;15.470;2023-04-01T15:01:24;0.10;;;0.10;;
44048;SDS011;29717;47.028;15.470;2023-04-01T15:03:54;0.55;;;0.35;;
44048;SDS011;29717;47.028;15.470;2023-04-01T15:06:35;1.17;;;0.20;;
44048;SDS011;29717;47.028;15.470;2023-04-01T15:09:08;0.20;;;0.20;;
44048;SDS011;29717;47.028;15.470;2023-04-01T15:11:43;0.50;;;0.40;;
44048;SDS011;29717;47.028;15.470;2023-04-01T15:14:21;0.35;;;0.35;;
44048;SDS011;29717;47.028;15.470;2023-04-01T15:16:54;0.35;;;0.20;;
44048;SDS011;29717;47.028;15.470;2023-04-01T15:19:24;0.28;;;0.28;;
44048;SDS011;29717;47.028;15.470;2023-04-01T15:22:00;0.43;;;0.40;;
44048;SDS011;29717;47.028;15.470;2023-04-01T15:24:35;0.50;;;0.30;;
44048;SDS011;29717;47.028;15.470;2023-04-01T15:27:08;0.50;;;0.38;;
44048;SDS011;29717;47.028;15.470;2023-04-01T15:29:45;0.55;;;0.40;;
44048;SDS011;29717;47.028;15.470;2023-04-01T15:32:16;0.38;;;0.30;;
44048;SDS011;29717;47.028;15.470;2023-04-01T15:34:44;0.20;;;0.20;;
44048;SDS011;29717;47.028;15.470;2023-04-01T15:37:14;0.77;;;0.40;;
44048;SDS011;29717;47.028;15.470;2023-04-01T15:39:49;0.25;;;0.20;;
44048;SDS011;29717;47.028;15.470;2023-04-01T15:42:26;0.40;;;0.30;;
44048;SDS011;29717;47.028;15.470;2023-04-01T15:45:01;0.55;;;0.50;;
44048;SDS011;29717;47.028;15.470;2023-04-01T15:47:35;0.40;;;0.40;;
44048;SDS011;29717;47.028;15.470;2023-04-01T15:52:49;3.00;;;0.55;;
44048;SDS011;29717;47.028;15.470;2023-04-01T15:55:24;0.73;;;0.50;;
44048;SDS011;29717;47.028;15.470;2023-04-01T15:58:03;0.30;;;0.30;;
44048;SDS011;29717;47.028;15.470;2023-04-01T16:00:40;0.95;;;0.47;;
44048;SDS011;29717;47.028;15.470;2023-04-01T16:03:22;0.77;;;0.40;;
44048;SDS011;29717;47.028;15.470;2023-04-01T16:08:49;0.25;;;0.25;;
44048;SDS011;29717;47.028;15.470;2023-04-01T16:11:23;0.88;;;0.40;;
44048;SDS011;29717;47.028;15.470;2023-04-01T16:14:05;0.30;;;0.30;;
44048;SDS011;29717;47.028;15.470;2023-04-01T16:16:39;0.40;;;0.40;;
44048;SDS011;29717;47.028;15.470;2023-04-01T16:19:18;0.30;;;0.30;;
44048;SDS011;29717;47.028;15.470;2023-04-01T16:21:48;0.50;;;0.40;;
44048;SDS011;29717;47.028;15.470;2023-04-01T16:24:20;0.30;;;0.30;;
44048;SDS011;29717;47.028;15.470;2023-04-01T16:26:50;1.40;;;0.47;;
44048;SDS011;29717;47.028;15.470;2023-04-01T16:29:21;0.30;;;0.30;;